Welcome to Des Moines Iowa Weather. I am an independent private personal weather station on the Northwest Side of Des Moines, Iowa. Just East of Windsor Heights and just West of Glendale . This site is also mobile friendly.

There are no active watches, warnings or advisories


Visit our other weather sites:

Historical Data

Weather Station Setup



Weather Underground History page Text

Daily Summary for February 14, 2018 Units:  English    Metric   Both
« Previous Day
Next Day »
Daily Weekly Monthly Yearly Custom
  High: Low: Average:
Temperature: 46.3 °F 27.7 °F 37.4 °F
Dew Point: 38.0 °F 23.0 °F 32.7 °F
Humidity: 93 % 71 % 83 %
Wind Speed: 7.0 mph 0.0 mph 1 mph
Wind Gust: 13.0 mph - -
Wind:- - South
Pressure: 30.16 in 29.79 in -
Precipitation: 0.00 in    
Historical Graphs
 
 
Tabular Data for February 14, 2018
Time Temperature Dew Point Pressure Wind Wind Speed Wind Gust Humidity Rainfall Rate (Hourly)
00:11 29.6 °F 24.0 °F 30.16 in Calm   2.0 mph 79 % 0.00 in
00:26 29.2 °F 23.0 °F 30.16 in Calm     79 % 0.00 in
00:41 29.0 °F 24.0 °F 30.16 in Calm   3.0 mph 81 % 0.00 in
00:56 29.3 °F 24.0 °F 30.15 in Calm     81 % 0.00 in
01:11 29.4 °F 25.0 °F 30.14 in Calm   3.0 mph 82 % 0.00 in
01:26 29.7 °F 25.0 °F 30.14 in Calm   3.0 mph 82 % 0.00 in
01:41 29.7 °F 25.0 °F 30.13 in Calm   2.0 mph 82 % 0.00 in
01:56 29.8 °F 25.0 °F 30.12 in SSW 1.0 mph 3.0 mph 82 % 0.00 in
02:11 29.9 °F 25.0 °F 30.12 in Calm   2.0 mph 82 % 0.00 in
02:26 30.1 °F 25.0 °F 30.12 in Calm   2.0 mph 82 % 0.00 in
02:41 30.0 °F 25.0 °F 30.11 in Calm   1.0 mph 82 % 0.00 in
02:56 30.0 °F 25.0 °F 30.10 in Calm   1.0 mph 82 % 0.00 in
03:18 29.9 °F 25.0 °F 30.10 in Calm     82 % 0.00 in
03:26 29.8 °F 25.0 °F 30.08 in Calm   4.0 mph 83 % 0.00 in
03:41 29.7 °F 25.0 °F 30.08 in Calm     83 % 0.00 in
03:56 29.3 °F 25.0 °F 30.07 in Calm   2.0 mph 83 % 0.00 in
04:11 28.9 °F 24.0 °F 30.07 in Calm   2.0 mph 83 % 0.00 in
04:26 28.4 °F 24.0 °F 30.06 in Calm   2.0 mph 83 % 0.00 in
04:41 28.1 °F 24.0 °F 30.07 in SSW 1.0 mph 2.0 mph 84 % 0.00 in
04:56 27.9 °F 24.0 °F 30.06 in Calm   1.0 mph 85 % 0.00 in
05:11 27.8 °F 24.0 °F 30.07 in Calm   1.0 mph 85 % 0.00 in
05:26 27.7 °F 24.0 °F 30.06 in Calm   2.0 mph 86 % 0.00 in
05:41 28.3 °F 25.0 °F 30.06 in SSW 2.0 mph 3.0 mph 87 % 0.00 in
05:56 28.8 °F 26.0 °F 30.05 in SSW 1.0 mph 4.0 mph 88 % 0.00 in
06:11 29.2 °F 26.0 °F 30.04 in SSW 1.0 mph 4.0 mph 88 % 0.00 in
06:26 29.4 °F 26.0 °F 30.05 in Calm   2.0 mph 88 % 0.00 in
06:41 29.6 °F 27.0 °F 30.04 in SSW 2.0 mph 3.0 mph 88 % 0.00 in
06:56 30.0 °F 27.0 °F 30.03 in SSW 1.0 mph 3.0 mph 89 % 0.00 in
07:11 30.5 °F 28.0 °F 30.04 in SSW 1.0 mph 4.0 mph 89 % 0.00 in
07:26 30.8 °F 28.0 °F 30.03 in SSW 1.0 mph 3.0 mph 89 % 0.00 in
07:41 31.2 °F 28.0 °F 30.03 in SSW 3.0 mph 4.0 mph 89 % 0.00 in
07:56 31.5 °F 29.0 °F 30.03 in Calm   3.0 mph 89 % 0.00 in
08:12 32.3 °F 30.0 °F 30.03 in Calm   4.0 mph 89 % 0.00 in
08:27 33.3 °F 30.0 °F 30.02 in SSE 2.0 mph 6.0 mph 89 % 0.00 in
08:42 34.8 °F 31.0 °F 30.02 in SSE 2.0 mph 7.0 mph 87 % 0.00 in
08:57 36.0 °F 32.0 °F 30.01 in South 2.0 mph 6.0 mph 84 % 0.00 in
09:12 37.3 °F 33.0 °F 30.01 in SSW 2.0 mph 3.0 mph 83 % 0.00 in
09:27 38.2 °F 33.0 °F 30.00 in Calm   3.0 mph 81 % 0.00 in
09:42 39.7 °F 34.0 °F 29.99 in South 1.0 mph 4.0 mph 79 % 0.00 in
09:57 40.9 °F 35.0 °F 29.99 in Calm   3.0 mph 78 % 0.00 in
10:12 42.4 °F 35.0 °F 29.98 in South 1.0 mph 6.0 mph 76 % 0.00 in
10:27 44.0 °F 36.0 °F 29.97 in SSW 3.0 mph 4.0 mph 73 % 0.00 in
10:42 44.6 °F 36.0 °F 29.97 in SW 3.0 mph 6.0 mph 72 % 0.00 in
10:57 44.8 °F 36.0 °F 29.97 in South 2.0 mph 6.0 mph 72 % 0.00 in
11:12 44.8 °F 36.0 °F 29.96 in SSE 2.0 mph 6.0 mph 72 % 0.00 in
11:27 45.4 °F 37.0 °F 29.96 in SSW 1.0 mph 4.0 mph 72 % 0.00 in
11:43 46.2 °F 37.0 °F 29.95 in SSW 2.0 mph 4.0 mph 71 % 0.00 in
11:58 45.6 °F 37.0 °F 29.94 in SE 4.0 mph 4.0 mph 71 % 0.00 in
12:13 46.0 °F 37.0 °F 29.93 in SSW 2.0 mph 6.0 mph 71 % 0.00 in
12:28 46.3 °F 37.0 °F 29.92 in SSE 1.0 mph 6.0 mph 71 % 0.00 in
12:43 46.3 °F 37.0 °F 29.92 in Calm   9.0 mph 71 % 0.00 in
12:58 45.9 °F 37.0 °F 29.90 in SW 3.0 mph 10.0 mph 72 % 0.00 in
13:13 45.1 °F 37.0 °F 29.89 in South 2.0 mph 9.0 mph 73 % 0.00 in
13:28 45.9 °F 38.0 °F 29.89 in SSW 7.0 mph 7.0 mph 73 % 0.00 in
13:43 45.8 °F 38.0 °F 29.88 in SSW 2.0 mph 7.0 mph 73 % 0.00 in
13:58 45.6 °F 38.0 °F 29.87 in SW 6.0 mph 7.0 mph 74 % 0.00 in
14:13 45.6 °F 38.0 °F 29.86 in Calm   8.0 mph 74 % 0.00 in
14:28 45.0 °F 38.0 °F 29.86 in SSE 2.0 mph 9.0 mph 75 % 0.00 in
14:43 45.2 °F 38.0 °F 29.86 in SSW 6.0 mph 6.0 mph 75 % 0.00 in
15:05 44.3 °F 38.0 °F 29.86 in SSW 1.0 mph 9.0 mph 77 % 0.00 in
15:13 44.7 °F 38.0 °F 29.85 in SSW 2.0 mph 13.0 mph 77 % 0.00 in
15:28 44.8 °F 38.0 °F 29.85 in SSE 5.0 mph 9.0 mph 77 % 0.00 in
15:43 44.1 °F 38.0 °F 29.85 in SSW 2.0 mph 8.0 mph 79 % 0.00 in
15:58 44.2 °F 38.0 °F 29.84 in SSW 2.0 mph 6.0 mph 79 % 0.00 in
16:13 43.8 °F 38.0 °F 29.85 in South 6.0 mph 8.0 mph 79 % 0.00 in
16:28 43.4 °F 38.0 °F 29.85 in SSW 1.0 mph 5.0 mph 81 % 0.00 in
16:43 43.2 °F 38.0 °F 29.84 in South 2.0 mph 5.0 mph 82 % 0.00 in
16:58 42.8 °F 38.0 °F 29.84 in SW 1.0 mph 5.0 mph 83 % 0.00 in
17:13 42.4 °F 38.0 °F 29.83 in Calm   5.0 mph 84 % 0.00 in
17:28 41.9 °F 38.0 °F 29.82 in Calm   3.0 mph 85 % 0.00 in
17:43 41.5 °F 38.0 °F 29.82 in SSE 1.0 mph 5.0 mph 86 % 0.00 in
17:58 41.2 °F 38.0 °F 29.81 in Calm   3.0 mph 87 % 0.00 in
18:13 40.9 °F 37.0 °F 29.81 in Calm   3.0 mph 87 % 0.00 in
18:28 40.5 °F 37.0 °F 29.82 in Calm   2.0 mph 88 % 0.00 in
18:43 40.0 °F 37.0 °F 29.82 in Calm   1.0 mph 88 % 0.00 in
18:58 39.7 °F 37.0 °F 29.82 in Calm     89 % 0.00 in
19:13 39.6 °F 37.0 °F 29.81 in SSE 1.0 mph 2.0 mph 90 % 0.00 in
19:28 39.4 °F 37.0 °F 29.80 in Calm   1.0 mph 90 % 0.00 in
19:43 39.5 °F 37.0 °F 29.80 in Calm   1.0 mph 91 % 0.00 in
19:58 39.7 °F 37.0 °F 29.81 in Calm   2.0 mph 91 % 0.00 in
20:13 39.7 °F 37.0 °F 29.80 in Calm   3.0 mph 91 % 0.00 in
20:28 39.5 °F 37.0 °F 29.80 in Calm     91 % 0.00 in
20:44 39.1 °F 37.0 °F 29.79 in Calm     91 % 0.00 in
20:58 38.8 °F 36.0 °F 29.80 in Calm     91 % 0.00 in
21:13 38.4 °F 36.0 °F 29.79 in Calm     91 % 0.00 in
21:29 38.2 °F 36.0 °F 29.79 in Calm     91 % 0.00 in
21:44 38.2 °F 36.0 °F 29.79 in Calm   3.0 mph 92 % 0.00 in
21:59 38.1 °F 36.0 °F 29.80 in Calm     92 % 0.00 in
22:14 37.8 °F 36.0 °F 29.82 in Calm     92 % 0.00 in
22:29 37.6 °F 36.0 °F 29.82 in Calm     92 % 0.00 in
22:44 37.7 °F 36.0 °F 29.82 in Calm     92 % 0.00 in
22:59 37.5 °F 36.0 °F 29.82 in Calm     93 % 0.00 in
23:14 37.4 °F 36.0 °F 29.82 in Calm     93 % 0.00 in
23:29 37.5 °F 36.0 °F 29.81 in Calm   1.0 mph 93 % 0.00 in
23:44 37.4 °F 36.0 °F 29.80 in Calm     93 % 0.00 in
23:59 37.2 °F 35.0 °F 29.80 in Calm     93 % 0.00 in
Des Moines Weather and Climate
Compliments of Weather Underground - 3 mb

Script developed by  Jim McMurry - jmcmurry@mwt.net Adapted for the template by  Wim van der Kuil - Leuven-Template.eu

You find our weather info also at:

Weather Underground

Equipment we use:

Weather-station
Davis VP2 Plus

Weather-program
Davis Weatherlink.Com

Weather-server
iMac (Retina 4K, 21.5-inch, Late 2015)

Provider
Hostmonster.com

Davis VP2 Plus

Davis Weatherlink.Com

iMac (Retina 4K, 21.5-inch, Late 2015)

Hostmonster.com